Airfield :
LOGIN :

Register | Disclaimer

   EN    FR    IT 

 










Legend :    VFR   Marginal VFR   IFR   Intensive IFR   Very Intensive IFR
Visi :
Ceiling :
>= 8 km
>= 3000ft
5 to 8 km
1000 to 3000 ft
1500m to 5 km
500 to 1000 ft
800 to 1500m
200 to 500 ft
< 800m
< 200 ft
Symbols :   Thunderstorms  Fog  Heavy snow  Heavy precipitations  Wind > 20 kt
SIGMETs :     Misc.  Thunderstorms  Icing  Turbulence  Mountain Waves  Volcanic Ashes






- Airport Elevation : 885 ft
- IATA code : BAS


LFSB - Bale-Mulhouse

CURRENT METAR :
  • 220130Z AUTO 21003KT CAVOK 05/03 Q1018 TEMPO 4000 BR BKN008

EXPIRED METARs :
  • 220100Z AUTO 33003KT CAVOK 05/02 Q1018 TEMPO 4000 BR
  • 220030Z AUTO 21003KT CAVOK 06/02 Q1017 TEMPO 4000 BR
  • 220000Z AUTO 21001KT CAVOK 06/02 Q1018 NOSIG
  • 212330Z AUTO VRB02KT CAVOK 06/03 Q1017 NOSIG
  • 212300Z AUTO 00000KT CAVOK 07/02 Q1017 NOSIG

TAF TAF LFSB
Valid from the 22 at 00:00 until the 23 at 00:00 UTC


212300Z 2200/2224 VRB03KT CAVOK
PROB40
TEMPO 2202/2208 4000 BR
PROB30
TEMPO 2203/2207 BKN008
BECMG 2209/2212 36010KT FEW040TCU
BECMG 2215/2218 CAVOK
BECMG 2221/2224 30003KT
Met : +33 3 89 90 31 11



MET'MAP, your aeronautical weather chart ! - Copyright ORBIFLY December 2007 - Disclaimer

ORBIFLY MET'MAP TEAM :

Programming & Development : Alexandra Zaïnal
Concept & original design : Baudouin d'Aumeries
Assistance for programming : Marc-Olivier Méhu
Technical & hardware support : Manuel Goepfert

Contact : metmap@orbifly.com




SOURCES & CREDITS :

   NOAA